Time;durP1;ratioP1;P1;durP2;ratioP2;P2;SDS_P1;SDS_P2;PMS_P1;PMS_P2;Temp;Humidity;BMP_temperature;BMP_pressure;BME280_temperature;BME280_humidity;BME280_pressure;Samples;Min_cycle;Max_cycle;Signal;HPM_P1;HPM_P2
2022/11/23 01:08:14;;;;;;;24.52;14.98;;;10.40;99.90;;;;;;6179626;23;20115;-88
2022/11/23 01:11:26;;;;;;;;;;;;;;;;;;;;;
2022/11/23 01:17:52;;;;;;;23.45;12.77;;;10.50;99.90;;;;;;6254665;23;20328;-89
2022/11/23 01:20:48;;;;;;;20.80;11.13;;;10.50;99.90;;;;;;6221202;23;20019;-86
2022/11/23 01:31:00;;;;;;;;;;;;;;;;;;;;;
2022/11/23 01:34:01;;;;;;;42.65;23.63;;;10.30;99.90;;;;;;6212846;23;20012;-88
2022/11/23 01:50:11;;;;;;;24.58;13.30;;;9.90;99.90;;;;;;5939557;23;20082;-89
2022/11/23 01:52:50;;;;;;;23.00;13.05;;;9.80;99.90;;;;;;6141172;23;20536;-89
2022/11/23 01:55:23;;;;;;;27.02;15.30;;;9.80;99.90;;;;;;6218620;23;20044;-87
2022/11/23 01:57:59;;;;;;;32.38;17.25;;;9.80;99.90;;;;;;6217878;23;20095;-88
2022/11/23 02:06:56;;;;;;;30.45;18.02;;;9.60;99.90;;;;;;6136149;22;20340;-87
2022/11/23 02:09:32;;;;;;;32.35;18.50;;;9.70;99.90;;;;;;6066033;23;20028;-87
2022/11/23 02:12:26;;;;;;;;;;;;;;;;;;;;;
2022/11/23 02:25:54;;;;;;;;;;;;;;;;;;;;;
2022/11/23 02:28:58;;;;;;;35.42;18.50;;;9.50;99.90;;;;;;6044321;23;20015;-86
2022/11/23 02:32:23;;;;;;;;;;;;;;;;;;;;;
2022/11/23 02:35:19;;;;;;;34.33;19.00;;;9.30;99.90;;;;;;6074279;23;20030;-87
2022/11/23 02:37:52;;;;;;;42.83;20.10;;;9.20;99.90;;;;;;6038530;23;20045;-86
2022/11/23 02:40:27;;;;;;;34.90;19.58;;;9.10;99.90;;;;;;6038176;23;20051;-88
2022/11/23 02:42:56;;;;;;;42.63;20.48;;;9.10;99.90;;;;;;6036560;23;20507;-84
2022/11/23 02:48:31;;;;;;;35.83;21.15;;;9.00;99.90;;;;;;6035761;23;20367;-87
2022/11/23 02:51:14;;;;;;;39.28;20.60;;;9.00;99.90;;;;;;6054802;23;20050;-84
2022/11/23 02:56:59;;;;;;;39.92;21.50;;;8.80;99.90;;;;;;6032769;23;20522;-87
2022/11/23 02:59:26;;;;;;;35.88;21.92;;;8.80;99.90;;;;;;6036882;23;20361;-87
2022/11/23 03:01:56;;;;;;;39.85;22.63;;;8.70;99.90;;;;;;6035951;23;20046;-89
2022/11/23 03:04:24;;;;;;;39.25;21.63;;;8.70;99.90;;;;;;6036436;23;20015;-86
2022/11/23 03:06:54;;;;;;;40.55;22.48;;;8.60;99.90;;;;;;6046509;23;20023;-86
2022/11/23 03:09:25;;;;;;;38.60;22.38;;;8.60;99.90;;;;;;6061723;23;20019;-87
2022/11/23 03:11:53;;;;;;;38.58;23.15;;;8.50;99.90;;;;;;6061206;23;20046;-87
2022/11/23 03:14:25;;;;;;;39.58;23.30;;;8.50;99.90;;;;;;6060350;23;20018;-88
2022/11/23 03:17:07;;;;;;;39.58;24.38;;;8.50;99.90;;;;;;6068410;23;20046;-86
2022/11/23 03:19:41;;;;;;;40.85;25.02;;;8.50;99.90;;;;;;6062299;23;20046;-88
2022/11/23 03:22:15;;;;;;;41.13;23.60;;;8.40;99.90;;;;;;6062047;23;20069;-87
2022/11/23 03:24:44;;;;;;;39.53;24.60;;;8.40;99.90;;;;;;6065832;23;20019;-88
2022/11/23 03:27:32;;;;;;;38.13;24.02;;;8.40;99.90;;;;;;6062516;23;20025;-87
2022/11/23 03:30:04;;;;;;;40.55;24.80;;;8.40;99.90;;;;;;6080544;23;20082;-88
2022/11/23 03:32:36;;;;;;;43.47;25.13;;;8.20;99.90;;;;;;6061976;23;20023;-88
2022/11/23 03:35:11;;;;;;;40.47;25.27;;;8.20;99.90;;;;;;6062125;23;20019;-88
2022/11/23 03:37:58;;;;;;;43.40;24.70;;;8.20;99.90;;;;;;6061886;23;20556;-86
2022/11/23 03:40:28;;;;;;;41.10;25.17;;;8.20;99.90;;;;;;6060546;23;20044;-87
2022/11/23 03:43:16;;;;;;;48.08;25.55;;;8.10;99.90;;;;;;6060678;23;20023;-88
2022/11/23 03:45:44;;;;;;;50.08;26.67;;;8.10;99.90;;;;;;6064299;23;20019;-87
2022/11/23 03:48:17;;;;;;;42.70;25.85;;;8.10;99.90;;;;;;6065211;23;20105;-89
2022/11/23 03:54:23;;;;;;;40.20;26.23;;;8.10;99.90;;;;;;6070185;23;20019;-86
2022/11/23 03:57:28;;;;;;;44.50;27.35;;;8.10;99.90;;;;;;6052122;23;20023;-88
2022/11/23 04:00:27;;;;;;;49.90;28.52;;;8.20;99.90;;;;;;6029874;23;20042;-87
2022/11/23 04:10:11;;;;;;;43.17;27.70;;;8.40;99.90;;;;;;6055956;23;20313;-87
2022/11/23 04:13:05;;;;;;;46.65;27.88;;;8.40;99.90;;;;;;6071367;23;20023;-88
2022/11/23 04:15:34;;;;;;;48.97;30.02;;;8.40;99.90;;;;;;6036932;23;20019;-88
2022/11/23 04:22:05;;;;;;;47.28;29.88;;;8.30;99.90;;;;;;6015039;23;20026;-86
2022/11/23 04:24:51;;;;;;;45.80;29.83;;;8.20;99.90;;;;;;6037248;23;20033;-88
2022/11/23 04:27:46;;;;;;;48.47;29.02;;;8.10;99.90;;;;;;6071781;23;20098;-88
2022/11/23 04:30:48;;;;;;;45.22;28.60;;;8.10;99.90;;;;;;6037038;23;20060;-88
2022/11/23 04:33:53;;;;;;;;;;;;;;;;;;;;;
2022/11/23 04:41:02;;;;;;;48.05;26.63;;;8.10;99.90;;;;;;6039610;23;20355;-88
2022/11/23 04:55:37;;;;;;;;;;;;;;;;;;;;;
2022/11/23 05:02:04;;;;;;;30.55;18.15;;;7.90;99.90;;;;;;5952737;23;20048;-87
2022/11/23 05:05:01;;;;;;;32.45;19.85;;;7.90;99.90;;;;;;6085185;23;20055;-88
2022/11/23 05:08:07;;;;;;;;;;;;;;;;;;;;;
2022/11/23 05:13:59;;;;;;;36.55;22.10;;;8.00;99.90;;;;;;6011635;23;20459;-86
2022/11/23 05:16:28;;;;;;;34.97;21.60;;;8.00;99.90;;;;;;6041151;23;20019;-86
2022/11/23 05:18:55;;;;;;;34.80;21.60;;;8.10;99.90;;;;;;6037394;23;20345;-88
2022/11/23 05:21:30;;;;;;;34.42;21.58;;;8.10;99.90;;;;;;6045437;23;20053;-86
2022/11/23 05:27:37;;;;;;;;;;;8.20;99.90;;;;;;6039792;23;20093;-88
2022/11/23 05:36:36;;;;;;;24.23;17.42;;;8.30;99.90;;;;;;6041415;23;20033;-86
2022/11/23 05:39:39;;;;;;;29.42;19.20;;;8.40;99.90;;;;;;6043595;23;20078;-88
2022/11/23 05:54:25;;;;;;;;;;;;;;;;;;;;;
2022/11/23 06:04:45;;;;;;;21.27;15.40;;;8.60;99.90;;;;;;5877771;23;20027;-90
2022/11/23 06:08:08;;;;;;;18.95;14.05;;;8.60;99.90;;;;;;6057896;23;20023;-89
2022/11/23 06:18:52;;;;;;;19.02;14.68;;;8.50;99.90;;;;;;6045852;23;20045;-87
2022/11/23 06:39:47;;;;;;;;;;;;;;;;;;;;;
2022/11/23 06:46:37;;;;;;;21.83;13.82;;;8.90;99.90;;;;;;5896107;24;20174;-87
2022/11/23 06:49:19;;;;;;;29.88;22.30;;;9.00;99.90;;;;;;5929978;23;20126;-90
2022/11/23 06:52:13;;;;;;;21.50;12.93;;;9.00;99.90;;;;;;6062951;23;20455;-88
2022/11/23 06:54:55;;;;;;;19.67;11.85;;;9.10;99.90;;;;;;6070407;23;20019;-88
2022/11/23 06:58:24;;;;;;;19.40;14.20;;;9.10;99.90;;;;;;6071124;23;20069;-87
2022/11/23 07:01:18;;;;;;;17.95;9.43;;;9.20;99.90;;;;;;5920110;23;20020;-88
2022/11/23 08:10:52;;;;;;;12.18;6.60;;;8.80;99.90;;;;;;5899825;23;20047;-85
2022/11/23 08:13:37;;;;;;;15.68;7.82;;;8.80;99.90;;;;;;6083762;23;20079;-86
2022/11/23 08:16:22;;;;;;;13.05;7.45;;;8.60;99.90;;;;;;6070518;23;20347;-86
2022/11/23 08:18:50;;;;;;;14.60;6.45;;;8.50;99.90;;;;;;6084401;23;20019;-87
2022/11/23 08:21:18;;;;;;;8.15;5.03;;;8.60;99.90;;;;;;6072466;23;20051;-87
2022/11/23 08:23:58;;;;;;;7.20;4.50;;;8.50;99.90;;;;;;6078723;23;20018;-87
2022/11/23 08:39:34;;;;;;;9.02;4.45;;;8.50;99.90;;;;;;5966973;23;19957;-89
2022/11/23 08:42:26;;;;;;;7.43;4.22;;;8.60;99.90;;;;;;6092975;23;20045;-90
2022/11/23 08:45:30;;;;;;;;;;;;;;;;;;;;;
2022/11/23 09:58:47;;;;;;;12.23;7.63;;;9.70;99.90;;;;;;6087713;23;20408;-85
2022/11/23 10:44:59;;;;;;;7.38;3.90;;;9.20;99.90;;;;;;6072339;23;20033;-86
2022/11/23 10:48:14;;;;;;;15.88;7.47;;;9.30;99.90;;;;;;6047662;23;20093;-86
2022/11/23 10:50:49;;;;;;;10.88;6.53;;;9.60;99.90;;;;;;6039352;23;20026;-83
2022/11/23 10:53:33;;;;;;;15.03;6.77;;;9.70;99.90;;;;;;6038631;23;20081;-86
2022/11/23 10:56:02;;;;;;;9.10;5.03;;;9.80;99.90;;;;;;6038640;23;20296;-82
2022/11/23 10:58:47;;;;;;;23.55;5.05;;;9.70;99.90;;;;;;6074054;23;20549;-84
2022/11/23 11:11:07;;;;;;;8.75;4.07;;;9.40;99.90;;;;;;6014333;23;20038;-86
2022/11/23 11:14:10;;;;;;;9.05;3.40;;;9.30;99.90;;;;;;6035653;23;20117;-83
2022/11/23 11:16:51;;;;;;;8.18;3.42;;;9.40;99.90;;;;;;6068126;23;20073;-84
2022/11/23 11:19:26;;;;;;;7.57;3.70;;;9.50;99.90;;;;;;6052203;23;20492;-85
2022/11/23 11:21:56;;;;;;;14.43;6.53;;;9.40;99.90;;;;;;6037548;23;20371;-85
2022/11/23 11:24:37;;;;;;;12.32;5.85;;;9.50;99.90;;;;;;6038775;23;20081;-86
2022/11/23 11:27:14;;;;;;;13.02;6.35;;;9.50;99.90;;;;;;6037962;23;20093;-85
2022/11/23 11:29:55;;;;;;;10.90;5.60;;;9.50;99.90;;;;;;6036330;23;20343;-87
2022/11/23 11:32:32;;;;;;;12.88;5.07;;;9.60;99.90;;;;;;6041894;23;20027;-84
2022/11/23 11:35:17;;;;;;;11.32;6.00;;;9.80;99.90;;;;;;6040161;23;20022;-83
2022/11/23 11:41:30;;;;;;;8.80;4.60;;;9.80;99.90;;;;;;6050714;23;20088;-90
2022/11/23 11:44:05;;;;;;;7.43;4.40;;;9.70;99.90;;;;;;6035497;23;20026;-81
2022/11/23 11:46:39;;;;;;;9.52;4.47;;;9.70;99.90;;;;;;6073756;23;20015;-86
2022/11/23 11:49:12;;;;;;;7.43;4.57;;;9.50;99.90;;;;;;6073210;23;20055;-82
2022/11/23 11:51:43;;;;;;;7.43;3.45;;;9.50;99.90;;;;;;6080739;23;20022;-79
2022/11/23 11:54:21;;;;;;;8.43;3.88;;;9.60;99.90;;;;;;6043496;23;20312;-82
2022/11/23 11:56:52;;;;;;;8.77;4.88;;;9.60;99.90;;;;;;6075678;23;20015;-80
2022/11/23 11:59:28;;;;;;;8.15;4.43;;;9.50;99.90;;;;;;6037954;23;20493;-81
2022/11/23 12:02:03;;;;;;;7.47;4.00;;;9.50;99.90;;;;;;6040575;23;20030;-79
2022/11/23 12:04:39;;;;;;;10.80;4.63;;;9.40;99.90;;;;;;6071730;23;20101;-79
2022/11/23 12:07:16;;;;;;;8.40;3.80;;;9.40;99.90;;;;;;6072179;23;20065;-79
2022/11/23 12:09:50;;;;;;;10.45;4.45;;;9.30;99.90;;;;;;6072015;23;20018;-80
2022/11/23 12:12:20;;;;;;;11.57;5.68;;;9.30;99.90;;;;;;6037442;23;20072;-81
2022/11/23 12:14:47;;;;;;;7.70;4.60;;;9.30;99.90;;;;;;6074649;23;20023;-80
2022/11/23 12:17:38;;;;;;;10.75;5.88;;;9.30;99.90;;;;;;6073933;23;20018;-81
2022/11/23 12:20:13;;;;;;;8.10;4.65;;;9.30;99.90;;;;;;6073412;23;20320;-79
2022/11/23 12:22:51;;;;;;;13.32;8.20;;;9.30;99.90;;;;;;6036067;23;20045;-80
2022/11/23 12:25:32;;;;;;;14.15;7.45;;;9.10;99.90;;;;;;6071317;23;20018;-80
2022/11/23 12:28:18;;;;;;;10.55;7.07;;;9.10;99.90;;;;;;6071006;23;20019;-80
2022/11/23 12:30:54;;;;;;;9.10;3.90;;;9.10;99.90;;;;;;5989794;23;20019;-79
2022/11/23 12:33:50;;;;;;;10.07;4.40;;;9.20;99.90;;;;;;6035673;23;20026;-81
2022/11/23 12:36:41;;;;;;;8.83;3.90;;;9.30;99.90;;;;;;6036393;23;20027;-83
2022/11/23 12:39:22;;;;;;;7.65;5.00;;;9.40;99.90;;;;;;6036992;23;20027;-79
2022/11/23 12:42:01;;;;;;;9.23;4.97;;;9.40;99.90;;;;;;6048975;23;20549;-77
2022/11/23 12:44:49;;;;;;;9.70;5.07;;;9.40;99.90;;;;;;6060034;23;20041;-81
2022/11/23 12:47:31;;;;;;;7.25;4.28;;;9.40;99.90;;;;;;6071320;23;20011;-80
2022/11/23 12:50:08;;;;;;;8.85;3.75;;;9.30;99.90;;;;;;6065927;23;20054;-79
2022/11/23 12:52:50;;;;;;;9.63;3.92;;;9.40;99.90;;;;;;6072520;23;20030;-82
2022/11/23 12:55:24;;;;;;;7.35;3.83;;;9.40;99.90;;;;;;6069160;23;20015;-81
2022/11/23 12:58:00;;;;;;;11.57;5.20;;;9.40;99.90;;;;;;6065115;23;20015;-78
2022/11/23 13:00:34;;;;;;;9.35;4.13;;;9.40;99.90;;;;;;6060280;23;20025;-79
2022/11/23 13:03:43;;;;;;;9.18;4.65;;;9.30;99.90;;;;;;6060063;23;20053;-80
2022/11/23 13:06:34;;;;;;;11.73;5.68;;;9.30;99.90;;;;;;6069842;23;20034;-80
2022/11/23 13:09:25;;;;;;;15.82;5.70;;;9.30;99.90;;;;;;6064573;23;20068;-80
2022/11/23 13:12:07;;;;;;;9.18;4.40;;;9.20;99.90;;;;;;6069788;23;20034;-81
2022/11/23 13:14:43;;;;;;;7.82;4.72;;;9.20;99.90;;;;;;6060153;23;20018;-79
2022/11/23 13:17:21;;;;;;;7.38;3.35;;;9.20;99.90;;;;;;6061564;23;20042;-81
2022/11/23 13:20:15;;;;;;;7.80;4.07;;;9.00;99.90;;;;;;6072538;23;20030;-81
2022/11/23 13:22:44;;;;;;;8.48;4.28;;;9.00;99.90;;;;;;6070811;23;20034;-81
2022/11/23 13:25:21;;;;;;;16.15;5.65;;;9.00;99.90;;;;;;6071020;23;20042;-80
2022/11/23 13:28:02;;;;;;;32.25;18.10;;;9.00;99.90;;;;;;6071977;23;20090;-79
2022/11/23 13:30:35;;;;;;;16.88;9.40;;;9.00;99.90;;;;;;6060742;23;20022;-80
2022/11/23 13:33:28;;;;;;;13.95;7.18;;;9.00;99.90;;;;;;6070807;23;20019;-83
2022/11/23 13:35:58;;;;;;;11.30;4.50;;;8.90;99.90;;;;;;6073578;23;20019;-81
2022/11/23 13:38:28;;;;;;;8.82;4.90;;;8.70;99.90;;;;;;6060566;23;20935;-80
2022/11/23 13:40:56;;;;;;;7.97;4.63;;;8.70;99.90;;;;;;6070826;23;20033;-82
2022/11/23 13:43:27;;;;;;;11.27;4.85;;;8.80;99.90;;;;;;6070074;23;20027;-79
2022/11/23 13:46:27;;;;;;;11.20;5.63;;;8.80;99.90;;;;;;6036045;23;20026;-82
2022/11/23 13:48:58;;;;;;;10.80;4.95;;;8.80;99.90;;;;;;6071231;23;20102;-80
2022/11/23 13:51:28;;;;;;;8.00;4.55;;;8.80;99.90;;;;;;6070516;23;20015;-81
2022/11/23 13:54:01;;;;;;;9.60;4.30;;;8.80;99.90;;;;;;6035930;23;20023;-79
2022/11/23 13:56:34;;;;;;;10.48;5.72;;;8.80;99.90;;;;;;6070574;23;20069;-79
2022/11/23 13:59:29;;;;;;;11.32;6.00;;;8.80;99.90;;;;;;6071914;23;20018;-84
2022/11/23 14:02:29;;;;;;;14.45;8.52;;;8.70;99.90;;;;;;6035088;23;20054;-82
2022/11/23 14:05:33;;;;;;;17.17;8.57;;;8.60;99.90;;;;;;6069776;23;20222;-81
2022/11/23 14:08:03;;;;;;;11.23;6.60;;;8.60;99.90;;;;;;6069680;23;20019;-82
2022/11/23 14:10:32;;;;;;;13.00;6.30;;;8.60;99.90;;;;;;6070089;23;20038;-81
2022/11/23 14:13:05;;;;;;;11.13;5.90;;;8.70;99.90;;;;;;6070727;23;20097;-82
2022/11/23 14:15:35;;;;;;;11.68;6.95;;;8.60;99.90;;;;;;6071474;23;20019;-82
2022/11/23 14:18:31;;;;;;;17.75;9.50;;;8.60;99.90;;;;;;6070452;23;20034;-79
2022/11/23 14:21:11;;;;;;;19.00;7.97;;;8.60;99.90;;;;;;6071015;23;20088;-81
2022/11/23 14:24:05;;;;;;;17.88;8.10;;;8.60;99.90;;;;;;6072673;23;20019;-81
2022/11/23 14:26:43;;;;;;;10.75;6.68;;;8.50;99.90;;;;;;6074478;23;20023;-81
2022/11/23 14:29:36;;;;;;;10.38;6.18;;;8.40;99.90;;;;;;6078208;23;20011;-82
2022/11/23 14:32:24;;;;;;;9.05;5.53;;;8.30;99.90;;;;;;6078862;23;20451;-79
2022/11/23 14:35:02;;;;;;;15.23;6.30;;;8.30;99.90;;;;;;6073012;23;20019;-81
2022/11/23 14:37:43;;;;;;;13.75;6.65;;;8.30;99.90;;;;;;6049114;23;20061;-81
2022/11/23 14:40:22;;;;;;;10.27;5.93;;;8.20;99.90;;;;;;6071685;23;20026;-80
2022/11/23 14:42:53;;;;;;;10.93;5.70;;;8.10;99.90;;;;;;6071082;23;20029;-82
2022/11/23 14:45:22;;;;;;;9.77;5.00;;;8.00;99.90;;;;;;6037445;23;20026;-82
2022/11/23 14:47:50;;;;;;;9.73;4.50;;;8.00;99.90;;;;;;6071560;23;20015;-81
2022/11/23 14:50:24;;;;;;;15.50;8.50;;;7.90;99.90;;;;;;6037931;23;20023;-82
2022/11/23 14:52:53;;;;;;;13.40;7.07;;;7.90;99.90;;;;;;6038340;23;20333;-82
2022/11/23 14:55:23;;;;;;;11.40;5.80;;;7.90;99.90;;;;;;6078568;23;20066;-82
2022/11/23 14:57:57;;;;;;;10.43;5.78;;;7.90;99.90;;;;;;6067891;23;20050;-82
2022/11/23 15:00:29;;;;;;;12.23;6.78;;;7.80;99.90;;;;;;6084480;23;20015;-82
2022/11/23 15:03:02;;;;;;;12.90;7.43;;;7.80;99.90;;;;;;6070868;23;20023;-83
2022/11/23 15:05:33;;;;;;;12.27;5.80;;;7.80;99.90;;;;;;6071103;23;20514;-84
2022/11/23 15:08:05;;;;;;;12.00;5.88;;;7.70;99.90;;;;;;6072205;23;20038;-81
2022/11/23 15:10:40;;;;;;;10.35;5.65;;;7.70;99.90;;;;;;6071769;23;20011;-81
2022/11/23 15:13:21;;;;;;;11.80;6.73;;;7.70;99.90;;;;;;6071218;23;20066;-82
2022/11/23 15:15:52;;;;;;;13.02;7.00;;;7.70;99.90;;;;;;6037060;23;20025;-83
2022/11/23 15:18:30;;;;;;;9.02;5.28;;;7.60;99.90;;;;;;6071080;23;20058;-83
2022/11/23 15:21:02;;;;;;;11.18;5.18;;;7.50;99.90;;;;;;6075947;23;20074;-83
2022/11/23 15:23:35;;;;;;;11.20;6.28;;;7.50;99.90;;;;;;6091393;23;20062;-82
2022/11/23 15:26:06;;;;;;;12.10;5.50;;;7.40;99.90;;;;;;6084357;23;20472;-82
2022/11/23 15:28:36;;;;;;;8.95;5.05;;;7.40;99.90;;;;;;6075392;23;20050;-80
2022/11/23 15:31:26;;;;;;;15.43;6.30;;;7.30;99.90;;;;;;6081605;23;20052;-80
2022/11/23 15:33:56;;;;;;;10.25;6.25;;;7.30;99.90;;;;;;6089873;23;20073;-81
2022/11/23 15:36:28;;;;;;;11.40;6.47;;;7.20;99.90;;;;;;6093075;23;20046;-83
2022/11/23 15:38:57;;;;;;;12.75;7.20;;;7.20;99.90;;;;;;6061548;23;20030;-79
2022/11/23 15:41:25;;;;;;;10.02;5.80;;;7.20;99.90;;;;;;6092336;23;20019;-81
2022/11/23 15:43:56;;;;;;;12.32;6.88;;;7.20;99.90;;;;;;6062519;23;20123;-82
2022/11/23 15:46:26;;;;;;;12.52;7.22;;;7.10;99.90;;;;;;6096899;23;20009;-81
2022/11/23 15:48:54;;;;;;;13.73;6.82;;;7.20;99.90;;;;;;6095745;23;20002;-81
2022/11/23 15:51:33;;;;;;;16.17;8.95;;;7.20;99.90;;;;;;6096509;23;20034;-81
2022/11/23 15:54:01;;;;;;;12.55;7.07;;;7.20;99.90;;;;;;6064071;23;20034;-83
2022/11/23 15:56:31;;;;;;;12.43;6.40;;;7.20;99.90;;;;;;6097773;23;20003;-81
2022/11/23 15:59:02;;;;;;;13.02;7.40;;;7.20;99.90;;;;;;6063277;23;20068;-81
2022/11/23 16:01:29;;;;;;;13.02;7.68;;;7.10;99.90;;;;;;6095596;23;20526;-81
2022/11/23 16:04:02;;;;;;;15.27;8.27;;;7.10;99.90;;;;;;6062236;23;20019;-82
2022/11/23 16:06:37;;;;;;;20.98;8.90;;;7.00;99.90;;;;;;6095593;23;20510;-81
2022/11/23 16:09:24;;;;;;;16.10;8.75;;;6.90;99.90;;;;;;6094088;23;20007;-83
2022/11/23 16:11:52;;;;;;;16.13;7.82;;;6.90;99.90;;;;;;6060988;23;20026;-83
2022/11/23 16:14:27;;;;;;;17.70;10.15;;;6.80;99.90;;;;;;6061992;23;20019;-83
2022/11/23 16:17:04;;;;;;;18.75;9.57;;;6.80;99.90;;;;;;6062118;23;20034;-83
2022/11/23 16:19:33;;;;;;;17.40;9.80;;;6.80;99.90;;;;;;6097025;23;19999;-80
2022/11/23 16:22:06;;;;;;;13.23;7.35;;;6.80;99.90;;;;;;6094636;23;20062;-83
2022/11/23 16:24:35;;;;;;;15.98;7.97;;;6.70;99.90;;;;;;6094287;23;20018;-80
2022/11/23 16:27:12;;;;;;;18.92;9.20;;;6.80;99.90;;;;;;6062367;23;19999;-80
2022/11/23 16:29:40;;;;;;;15.23;8.23;;;6.80;99.90;;;;;;6055568;23;20015;-81
2022/11/23 16:32:22;;;;;;;17.45;9.38;;;6.80;99.90;;;;;;6096088;23;20023;-81
2022/11/23 16:34:49;;;;;;;17.40;8.90;;;6.80;99.90;;;;;;6052509;23;20022;-83
2022/11/23 16:37:18;;;;;;;14.68;8.38;;;6.80;99.90;;;;;;6078771;23;20022;-82
2022/11/23 16:39:45;;;;;;;11.98;7.65;;;6.80;99.90;;;;;;6075018;23;20021;-83
2022/11/23 16:42:13;;;;;;;12.15;6.68;;;6.80;99.90;;;;;;6072682;23;20089;-81
2022/11/23 16:44:41;;;;;;;7.93;4.95;;;6.80;99.90;;;;;;6074007;23;20132;-81
2022/11/23 16:47:22;;;;;;;10.20;5.70;;;6.80;99.90;;;;;;6040716;23;20019;-82
2022/11/23 16:49:49;;;;;;;10.23;5.00;;;6.70;99.90;;;;;;6094785;23;20015;-81
2022/11/23 16:52:19;;;;;;;10.43;5.70;;;6.70;99.90;;;;;;6095994;23;20021;-82
2022/11/23 16:54:47;;;;;;;10.32;6.03;;;6.70;99.90;;;;;;6056121;23;20149;-82
2022/11/23 16:57:20;;;;;;;11.80;6.32;;;6.70;99.90;;;;;;6074693;23;20011;-81
2022/11/23 16:59:47;;;;;;;13.07;6.57;;;6.70;99.90;;;;;;6074967;23;20033;-82
2022/11/23 17:02:17;;;;;;;14.82;7.57;;;6.80;99.90;;;;;;6041303;23;20019;-82
2022/11/23 17:04:44;;;;;;;11.90;7.18;;;6.70;99.90;;;;;;6080060;23;20110;-82
2022/11/23 17:07:12;;;;;;;13.07;7.50;;;6.70;99.90;;;;;;6042199;23;20014;-83
2022/11/23 17:09:41;;;;;;;14.95;7.70;;;6.70;99.90;;;;;;6074635;23;20014;-82
2022/11/23 17:12:15;;;;;;;12.98;6.88;;;6.70;99.90;;;;;;6038709;23;20037;-80
2022/11/23 17:14:46;;;;;;;15.38;8.18;;;6.60;99.90;;;;;;6073284;23;20344;-81
2022/11/23 17:17:18;;;;;;;11.50;6.63;;;6.60;99.90;;;;;;6073088;23;20018;-80
2022/11/23 17:19:48;;;;;;;11.27;7.35;;;6.50;99.90;;;;;;6038090;23;20019;-82
2022/11/23 17:22:16;;;;;;;15.48;7.90;;;6.50;99.90;;;;;;6038427;23;20027;-82
2022/11/23 17:24:45;;;;;;;14.75;8.30;;;6.60;99.90;;;;;;6042526;23;20019;-83
2022/11/23 17:27:15;;;;;;;16.05;9.40;;;6.60;99.90;;;;;;6040214;23;20019;-82
2022/11/23 17:29:46;;;;;;;15.75;8.55;;;6.60;99.90;;;;;;6040309;23;20023;-83
2022/11/23 17:32:14;;;;;;;13.82;8.23;;;6.60;99.90;;;;;;6040555;23;20039;-81
2022/11/23 17:34:42;;;;;;;15.55;8.70;;;6.60;99.90;;;;;;6075390;23;20102;-81
2022/11/23 17:37:18;;;;;;;17.60;9.50;;;6.60;99.90;;;;;;6073947;23;20022;-84
2022/11/23 17:39:53;;;;;;;15.32;8.18;;;6.60;99.90;;;;;;6084332;23;20065;-84
2022/11/23 17:42:20;;;;;;;14.75;8.15;;;6.60;99.90;;;;;;6071894;23;20029;-84
2022/11/23 17:44:48;;;;;;;12.60;7.70;;;6.60;99.90;;;;;;6073631;23;20414;-82
2022/11/23 17:47:23;;;;;;;13.68;8.50;;;6.60;99.90;;;;;;6037677;23;20038;-80
2022/11/23 17:49:51;;;;;;;16.38;10.07;;;6.60;99.90;;;;;;6072498;23;20015;-81
2022/11/23 17:52:18;;;;;;;14.27;8.50;;;6.60;99.90;;;;;;6037855;23;20023;-80
2022/11/23 17:54:45;;;;;;;16.98;9.32;;;6.60;99.90;;;;;;6037929;23;20057;-80
2022/11/23 17:57:16;;;;;;;16.65;8.07;;;6.50;99.90;;;;;;6071442;23;20030;-79
2022/11/23 17:59:44;;;;;;;13.52;7.95;;;6.50;99.90;;;;;;6037066;23;20030;-81
2022/11/23 18:02:11;;;;;;;13.40;7.97;;;6.50;99.90;;;;;;6074953;23;20085;-79
2022/11/23 18:04:39;;;;;;;12.15;7.18;;;6.50;99.90;;;;;;6085797;23;20027;-81
2022/11/23 18:07:06;;;;;;;13.27;8.13;;;6.50;99.90;;;;;;6079968;23;20046;-80
2022/11/23 18:09:33;;;;;;;13.18;7.78;;;6.50;99.90;;;;;;6072496;23;20019;-81
2022/11/23 18:12:01;;;;;;;13.43;7.85;;;6.50;99.90;;;;;;6037635;23;20027;-81
2022/11/23 18:14:36;;;;;;;12.98;7.45;;;6.50;99.90;;;;;;6037988;23;20058;-80
2022/11/23 18:17:03;;;;;;;10.68;6.45;;;6.40;99.90;;;;;;6038304;23;20023;-82
2022/11/23 18:19:31;;;;;;;11.70;6.47;;;6.40;99.90;;;;;;6037527;23;20018;-81
2022/11/23 18:21:59;;;;;;;14.18;6.88;;;6.30;99.90;;;;;;6036707;23;20087;-82
2022/11/23 18:24:30;;;;;;;10.07;6.07;;;6.30;99.90;;;;;;6037287;23;20383;-82
2022/11/23 18:26:58;;;;;;;10.90;6.40;;;6.30;99.90;;;;;;6036977;23;20027;-83
2022/11/23 18:29:26;;;;;;;12.45;5.68;;;6.30;99.90;;;;;;6036309;23;20085;-83
2022/11/23 18:31:55;;;;;;;11.32;6.80;;;6.30;99.90;;;;;;6035788;23;20054;-82
2022/11/23 18:34:22;;;;;;;11.43;6.88;;;6.30;99.90;;;;;;6036531;23;20023;-80
2022/11/23 18:37:05;;;;;;;10.63;6.30;;;6.30;99.90;;;;;;6074984;23;20019;-92
2022/11/23 18:39:33;;;;;;;10.30;6.40;;;6.40;99.90;;;;;;6074152;23;20478;-83
2022/11/23 18:42:00;;;;;;;12.10;6.05;;;6.30;99.90;;;;;;6051129;23;20023;-80
2022/11/23 18:44:28;;;;;;;10.20;5.90;;;6.30;99.90;;;;;;6059037;23;20019;-81
2022/11/23 18:46:57;;;;;;;12.23;6.63;;;6.30;99.90;;;;;;6070729;23;20015;-83
2022/11/23 18:49:24;;;;;;;20.52;12.73;;;6.20;99.90;;;;;;6060099;23;20027;-82
2022/11/23 18:51:51;;;;;;;9.65;5.55;;;6.30;99.90;;;;;;6059670;23;20505;-82
2022/11/23 18:54:19;;;;;;;12.23;6.65;;;6.30;99.90;;;;;;6061565;23;20026;-83
2022/11/23 18:56:46;;;;;;;12.27;6.85;;;6.30;99.90;;;;;;6065368;23;20015;-84
2022/11/23 18:59:15;;;;;;;10.48;6.55;;;6.30;99.90;;;;;;6076306;23;20475;-84
2022/11/23 19:01:42;;;;;;;13.43;8.05;;;6.30;99.90;;;;;;6080513;23;20019;-85
2022/11/23 19:04:11;;;;;;;11.52;7.55;;;6.40;99.90;;;;;;6078088;23;20312;-86
2022/11/23 19:06:39;;;;;;;14.38;7.90;;;6.40;99.90;;;;;;6067534;23;20041;-85
2022/11/23 19:09:06;;;;;;;15.93;9.68;;;6.40;99.90;;;;;;6063766;23;20022;-85
2022/11/23 19:11:34;;;;;;;17.75;9.60;;;6.40;99.90;;;;;;6063500;23;20019;-85
2022/11/23 19:14:02;;;;;;;17.23;10.95;;;6.40;99.90;;;;;;6072277;23;20041;-85
2022/11/23 19:16:30;;;;;;;20.27;11.85;;;6.40;99.90;;;;;;6060241;23;20023;-83
2022/11/23 19:19:02;;;;;;;20.48;11.88;;;6.40;99.90;;;;;;6059555;23;20015;-86
2022/11/23 19:21:34;;;;;;;28.55;15.52;;;6.40;99.90;;;;;;6059348;23;20106;-84
2022/11/23 19:24:02;;;;;;;28.55;15.48;;;6.30;99.90;;;;;;6060800;23;20025;-81
2022/11/23 19:26:30;;;;;;;30.20;16.85;;;6.20;99.90;;;;;;6059665;23;20478;-82
2022/11/23 19:28:58;;;;;;;29.02;16.67;;;6.20;99.90;;;;;;6071359;23;20091;-81
2022/11/23 19:31:27;;;;;;;27.90;16.00;;;6.20;99.90;;;;;;6059349;23;20861;-85
2022/11/23 19:33:57;;;;;;;31.05;16.90;;;6.20;99.90;;;;;;6060683;23;20023;-84
2022/11/23 19:36:25;;;;;;;32.28;17.95;;;6.20;99.90;;;;;;6071191;23;20133;-81
2022/11/23 19:38:59;;;;;;;30.13;16.55;;;6.30;99.90;;;;;;6069581;23;20100;-84
2022/11/23 19:41:29;;;;;;;28.13;16.98;;;6.30;99.90;;;;;;6076066;23;20019;-86
2022/11/23 19:43:58;;;;;;;31.35;16.08;;;6.40;99.90;;;;;;6062167;23;20031;-86
2022/11/23 19:46:26;;;;;;;25.35;15.52;;;6.40;99.90;;;;;;6064376;23;20023;-84
2022/11/23 19:48:56;;;;;;;22.15;13.57;;;6.40;99.90;;;;;;6069882;23;20023;-84
2022/11/23 19:51:24;;;;;;;23.73;13.32;;;6.50;99.90;;;;;;6064035;23;20452;-86
2022/11/23 19:53:53;;;;;;;19.83;12.10;;;6.50;99.90;;;;;;6062853;23;20027;-84
2022/11/23 19:56:23;;;;;;;26.95;14.48;;;6.40;99.90;;;;;;6061236;23;20023;-84
2022/11/23 19:58:51;;;;;;;27.33;15.65;;;6.40;99.90;;;;;;6073189;23;20019;-88
2022/11/23 20:01:21;;;;;;;30.98;15.95;;;6.40;99.90;;;;;;6088779;23;20038;-90
2022/11/23 20:03:50;;;;;;;34.22;18.30;;;6.30;99.90;;;;;;6087951;23;20359;-78
2022/11/23 20:06:20;;;;;;;28.75;15.48;;;6.30;99.90;;;;;;6062322;23;20050;-86
2022/11/23 20:08:48;;;;;;;24.38;13.98;;;6.40;99.90;;;;;;6072410;23;20684;-85
2022/11/23 20:11:16;;;;;;;26.90;13.98;;;6.40;99.90;;;;;;6058518;23;20019;-83
2022/11/23 20:13:45;;;;;;;27.35;15.95;;;6.40;99.90;;;;;;6071064;23;20015;-81
2022/11/23 20:16:14;;;;;;;31.88;15.27;;;6.40;99.90;;;;;;6059815;23;20023;-80
2022/11/23 20:18:43;;;;;;;28.42;14.90;;;6.50;99.90;;;;;;6070940;23;20015;-80
2022/11/23 20:21:12;;;;;;;28.55;13.85;;;6.50;99.90;;;;;;6069587;23;20024;-78
2022/11/23 20:23:42;;;;;;;27.67;14.32;;;6.40;99.90;;;;;;6070447;23;20058;-81
2022/11/23 20:26:13;;;;;;;26.13;14.73;;;6.40;99.90;;;;;;6070299;23;20019;-78
2022/11/23 20:28:40;;;;;;;28.52;15.75;;;6.40;99.90;;;;;;6070618;23;20046;-83
2022/11/23 20:31:15;;;;;;;27.35;14.63;;;6.40;99.90;;;;;;6070790;23;20328;-80
2022/11/23 20:33:44;;;;;;;24.80;14.25;;;6.40;99.90;;;;;;6061432;23;20108;-80
2022/11/23 20:36:15;;;;;;;30.95;14.85;;;6.50;99.90;;;;;;6075489;23;20377;-82
2022/11/23 20:38:43;;;;;;;31.40;15.65;;;6.50;99.90;;;;;;6076971;23;20030;-80
2022/11/23 20:41:15;;;;;;;28.52;15.02;;;6.50;99.90;;;;;;6062641;23;20328;-81
2022/11/23 20:43:43;;;;;;;31.20;13.60;;;6.50;99.90;;;;;;6071682;23;20022;-83
2022/11/23 20:46:12;;;;;;;28.00;14.02;;;6.50;99.90;;;;;;6072449;23;20014;-83